createdAt,value
2023-03-20T00:00:12.843Z,87.45
2023-03-20T00:01:12.821Z,88.17
2023-03-20T00:02:12.809Z,88.51
2023-03-20T00:03:12.793Z,87.59
2023-03-20T00:04:12.949Z,87.59
2023-03-20T00:05:12.774Z,87.59
2023-03-20T00:06:12.780Z,87.70
2023-03-20T00:07:12.763Z,87.59
2023-03-20T00:08:12.851Z,87.59
2023-03-20T00:09:12.729Z,87.18
2023-03-20T00:10:12.732Z,88.31
2023-03-20T00:11:12.705Z,88.51
2023-03-20T00:12:12.684Z,87.29
2023-03-20T00:13:12.675Z,87.24
2023-03-20T00:14:12.662Z,87.29
2023-03-20T00:15:12.659Z,88.10
2023-03-20T00:16:12.719Z,88.10
2023-03-20T00:17:12.640Z,88.20
2023-03-20T00:18:12.630Z,87.49
2023-03-20T00:19:12.618Z,87.49
2023-03-20T00:20:12.640Z,87.70
2023-03-20T00:21:12.593Z,87.79
2023-03-20T00:22:12.606Z,87.29
2023-03-20T00:23:12.568Z,87.08
2023-03-20T00:24:12.563Z,87.38
2023-03-20T00:25:12.567Z,87.18
2023-03-20T00:26:12.536Z,87.79
2023-03-20T00:27:12.510Z,88.10
2023-03-20T00:28:12.509Z,87.38
2023-03-20T00:29:12.506Z,87.59
2023-03-20T00:30:12.493Z,87.90
2023-03-20T00:31:12.499Z,87.59
2023-03-20T00:32:12.462Z,87.70
2023-03-20T00:33:12.532Z,87.38
2023-03-20T00:34:12.438Z,87.38
2023-03-20T00:35:12.435Z,87.59
2023-03-20T00:36:12.495Z,88.00
2023-03-20T00:37:12.402Z,87.65
2023-03-20T00:38:12.431Z,87.59
2023-03-20T00:39:12.376Z,87.59
2023-03-20T00:40:12.383Z,87.59
2023-03-20T00:41:12.398Z,87.38
2023-03-20T00:42:12.348Z,87.29
2023-03-20T00:43:12.333Z,86.98
2023-03-20T00:44:12.342Z,87.29
2023-03-20T00:45:12.311Z,87.18
2023-03-20T00:46:12.327Z,88.26
2023-03-20T00:47:12.287Z,87.76
2023-03-20T00:48:12.299Z,88.00
2023-03-20T00:49:12.267Z,87.49
2023-03-20T00:50:12.276Z,87.49
2023-03-20T00:51:12.245Z,87.59
2023-03-20T00:52:12.261Z,87.70
2023-03-20T00:53:12.233Z,87.49
2023-03-20T00:54:12.236Z,87.59
2023-03-20T00:55:12.222Z,87.63
2023-03-20T00:56:12.191Z,87.79
2023-03-20T00:57:12.220Z,87.49
2023-03-20T00:58:12.206Z,87.84
2023-03-20T00:59:12.155Z,87.38
2023-03-20T01:00:12.145Z,87.49
2023-03-20T01:01:12.196Z,87.63
2023-03-20T01:02:12.272Z,87.53
2023-03-20T01:03:12.108Z,87.38
2023-03-20T01:04:12.105Z,87.70
2023-03-20T01:05:12.084Z,87.32
2023-03-20T01:06:12.116Z,88.10
2023-03-20T01:07:12.080Z,87.18
2023-03-20T01:08:12.054Z,87.70
2023-03-20T01:09:12.038Z,86.67
2023-03-20T01:10:12.067Z,86.77
2023-03-20T01:11:12.029Z,86.98
2023-03-20T01:12:12.030Z,86.88
2023-03-20T01:13:12.005Z,87.02
2023-03-20T01:14:12.002Z,86.67
2023-03-20T01:15:11.971Z,86.77
2023-03-20T01:16:11.969Z,87.49
2023-03-20T01:17:13.551Z,86.71
2023-03-20T01:18:11.954Z,87.32
2023-03-20T01:19:11.935Z,87.12
2023-03-20T01:20:11.931Z,86.98
2023-03-20T01:21:11.913Z,87.53
2023-03-20T01:22:11.899Z,87.32
2023-03-20T01:23:11.876Z,87.32
2023-03-20T01:24:11.909Z,87.32
2023-03-20T01:25:11.868Z,87.02
2023-03-20T01:26:11.882Z,87.22
2023-03-20T01:27:11.831Z,86.98
2023-03-20T01:28:11.847Z,87.02
2023-03-20T01:29:11.812Z,86.98
2023-03-20T01:30:11.820Z,87.22
2023-03-20T01:31:11.786Z,87.08
2023-03-20T01:32:12.004Z,87.32
2023-03-20T01:33:11.827Z,86.71
2023-03-20T01:34:11.810Z,86.77
2023-03-20T01:35:11.742Z,86.81
2023-03-20T01:36:11.864Z,87.02
2023-03-20T01:37:11.719Z,86.81
2023-03-20T01:38:11.776Z,86.71
2023-03-20T01:39:11.698Z,86.81
2023-03-20T01:40:11.700Z,86.81
2023-03-20T01:41:11.693Z,87.02
2023-03-20T01:42:11.702Z,86.77
2023-03-20T01:43:11.666Z,86.71
2023-03-20T01:44:11.668Z,87.12
2023-03-20T01:45:11.640Z,86.81
2023-03-20T01:46:11.707Z,86.71
2023-03-20T01:47:11.608Z,86.81
2023-03-20T01:48:11.614Z,87.08
2023-03-20T01:49:11.599Z,86.67
2023-03-20T01:50:11.618Z,86.81
2023-03-20T01:51:11.575Z,86.51
2023-03-20T01:52:11.558Z,86.51
2023-03-20T01:53:11.558Z,86.61
2023-03-20T01:54:11.546Z,86.81
2023-03-20T01:55:11.516Z,86.81
2023-03-20T01:56:11.526Z,87.02
2023-03-20T01:57:11.516Z,86.81
2023-03-20T01:58:11.524Z,87.02
2023-03-20T01:59:11.472Z,86.71
2023-03-20T02:00:11.467Z,86.55
2023-03-20T02:01:11.496Z,85.99
2023-03-20T02:02:11.481Z,85.89
2023-03-20T02:03:11.445Z,85.99
2023-03-20T02:04:11.426Z,85.79
2023-03-20T02:05:11.562Z,85.79
2023-03-20T02:06:11.412Z,85.89
2023-03-20T02:07:11.389Z,85.99
2023-03-20T02:08:11.397Z,85.79
2023-03-20T02:09:11.383Z,85.99
2023-03-20T02:10:11.362Z,85.89
2023-03-20T02:11:11.351Z,85.79
2023-03-20T02:12:11.352Z,85.89
2023-03-20T02:13:11.331Z,85.99
2023-03-20T02:14:11.350Z,85.93
2023-03-20T02:15:11.306Z,86.10
2023-03-20T02:16:11.308Z,85.58
2023-03-20T02:17:11.283Z,85.48
2023-03-20T02:18:11.264Z,85.79
2023-03-20T02:19:11.246Z,85.69
2023-03-20T02:20:11.270Z,85.11
2023-03-20T02:21:11.240Z,84.87
2023-03-20T02:22:11.245Z,85.01
2023-03-20T02:23:11.214Z,85.22
2023-03-20T02:24:11.205Z,85.22
2023-03-20T02:25:11.179Z,85.11
2023-03-20T02:26:11.183Z,85.11
2023-03-20T02:27:11.176Z,85.11
2023-03-20T02:28:11.148Z,84.91
2023-03-20T02:29:11.146Z,85.01
2023-03-20T02:30:11.166Z,84.56
2023-03-20T02:31:11.207Z,84.60
2023-03-20T02:32:11.148Z,85.31
2023-03-20T02:33:11.182Z,85.31
2023-03-20T02:34:11.087Z,85.01
2023-03-20T02:35:11.082Z,84.60
2023-03-20T02:36:11.214Z,84.50
2023-03-20T02:37:11.056Z,83.98
2023-03-20T02:38:11.054Z,83.95
2023-03-20T02:39:11.028Z,84.39
2023-03-20T02:40:11.037Z,85.11
2023-03-20T02:41:11.076Z,85.01
2023-03-20T02:42:11.010Z,85.11
2023-03-20T02:43:11.052Z,85.11
2023-03-20T02:44:11.007Z,85.11
2023-03-20T02:45:10.953Z,84.39
2023-03-20T02:46:11.038Z,84.39
2023-03-20T02:47:10.932Z,84.09
2023-03-20T02:48:10.925Z,84.39
2023-03-20T02:49:10.909Z,83.98
2023-03-20T02:50:10.900Z,83.68
2023-03-20T02:51:10.917Z,83.88
2023-03-20T02:52:10.897Z,84.39
2023-03-20T02:53:10.879Z,84.39
2023-03-20T02:54:10.862Z,85.15
2023-03-20T02:55:10.852Z,85.11
2023-03-20T02:56:10.831Z,84.60
2023-03-20T02:57:10.818Z,85.05
2023-03-20T02:58:10.836Z,84.91
2023-03-20T02:59:10.803Z,84.19
2023-03-20T03:00:10.786Z,84.50
2023-03-20T03:01:10.866Z,84.33
2023-03-20T03:02:10.843Z,84.53
2023-03-20T03:03:10.766Z,85.25
2023-03-20T03:04:10.749Z,85.15
2023-03-20T03:05:10.742Z,85.25
2023-03-20T03:06:10.755Z,84.88
2023-03-20T03:07:10.727Z,84.99
2023-03-20T03:08:10.724Z,85.19
2023-03-20T03:09:10.685Z,84.78
2023-03-20T03:10:10.689Z,84.99
2023-03-20T03:11:10.679Z,86.01
2023-03-20T03:12:10.655Z,86.01
2023-03-20T03:13:10.651Z,86.01
2023-03-20T03:14:10.643Z,85.60
2023-03-20T03:15:10.617Z,86.05
2023-03-20T03:16:10.688Z,85.71
2023-03-20T03:17:10.629Z,86.01
2023-03-20T03:18:10.618Z,86.11
2023-03-20T03:19:10.640Z,86.32
2023-03-20T03:20:10.591Z,85.91
2023-03-20T03:21:10.546Z,86.98
2023-03-20T03:22:10.572Z,86.93
2023-03-20T03:23:10.550Z,86.83
2023-03-20T03:24:10.538Z,86.52
2023-03-20T03:25:10.502Z,86.73
2023-03-20T03:26:10.506Z,86.83
2023-03-20T03:27:10.484Z,86.73
2023-03-20T03:28:10.477Z,86.83
2023-03-20T03:29:10.558Z,86.93
2023-03-20T03:30:10.444Z,87.34
2023-03-20T03:31:10.501Z,87.04
2023-03-20T03:32:10.435Z,87.34
2023-03-20T03:33:10.451Z,87.34
2023-03-20T03:34:10.433Z,87.04
2023-03-20T03:35:10.405Z,87.55
2023-03-20T03:36:10.448Z,87.24
2023-03-20T03:37:10.381Z,87.04
2023-03-20T03:38:10.372Z,87.24
2023-03-20T03:39:10.350Z,87.14
2023-03-20T03:40:10.342Z,87.65
2023-03-20T03:41:10.331Z,86.73
2023-03-20T03:42:10.334Z,86.79
2023-03-20T03:43:10.330Z,87.04
2023-03-20T03:44:10.287Z,87.14
2023-03-20T03:45:10.298Z,86.83
2023-03-20T03:46:10.332Z,86.73
2023-03-20T03:47:10.273Z,87.76
2023-03-20T03:48:10.249Z,87.65
2023-03-20T03:49:10.239Z,87.24
2023-03-20T03:50:10.259Z,87.38
2023-03-20T03:51:10.214Z,87.24
2023-03-20T03:52:10.212Z,87.14
2023-03-20T03:53:10.212Z,87.45
2023-03-20T03:54:10.191Z,87.34
2023-03-20T03:55:10.180Z,87.34
2023-03-20T03:56:10.224Z,87.45
2023-03-20T03:57:10.162Z,87.55
2023-03-20T03:58:10.134Z,87.55
2023-03-20T03:59:10.119Z,87.38
2023-03-20T04:00:10.113Z,87.24
2023-03-20T04:01:10.100Z,86.93
2023-03-20T04:02:10.255Z,87.04
2023-03-20T04:03:10.089Z,87.70
2023-03-20T04:04:10.143Z,87.14
2023-03-20T04:05:10.096Z,87.65
2023-03-20T04:06:10.094Z,88.37
2023-03-20T04:07:10.071Z,87.70
2023-03-20T04:08:10.030Z,87.14
2023-03-20T04:09:10.027Z,87.38
2023-03-20T04:10:09.998Z,87.34
2023-03-20T04:11:09.988Z,87.59
2023-03-20T04:12:09.987Z,87.76
2023-03-20T04:13:09.981Z,87.55
2023-03-20T04:14:09.961Z,87.18
2023-03-20T04:15:09.951Z,87.14
2023-03-20T04:16:09.935Z,87.34
2023-03-20T04:17:09.937Z,87.04
2023-03-20T04:18:09.933Z,87.65
2023-03-20T04:19:09.916Z,87.24
2023-03-20T04:20:09.880Z,87.49
2023-03-20T04:21:09.900Z,87.49
2023-03-20T04:22:09.883Z,86.83
2023-03-20T04:23:09.885Z,86.98
2023-03-20T04:24:09.851Z,86.66
2023-03-20T04:25:09.848Z,86.77
2023-03-20T04:26:09.819Z,86.63
2023-03-20T04:27:09.818Z,87.18
2023-03-20T04:28:09.825Z,86.93
2023-03-20T04:29:09.800Z,86.98
2023-03-20T04:30:09.784Z,86.77
2023-03-20T04:31:09.855Z,86.98
2023-03-20T04:32:09.769Z,87.08
2023-03-20T04:33:09.832Z,86.77
2023-03-20T04:34:09.755Z,86.87
2023-03-20T04:35:09.731Z,86.77
2023-03-20T04:36:09.837Z,86.66
2023-03-20T04:37:09.697Z,86.77
2023-03-20T04:38:09.714Z,86.87
2023-03-20T04:39:09.691Z,86.77
2023-03-20T04:40:09.694Z,87.08
2023-03-20T04:41:09.663Z,86.87
2023-03-20T04:42:09.652Z,86.98
2023-03-20T04:43:09.648Z,86.66
2023-03-20T04:44:09.676Z,86.66
2023-03-20T04:45:09.638Z,86.77
2023-03-20T04:46:09.742Z,87.22
2023-03-20T04:47:09.598Z,87.18
2023-03-20T04:48:09.590Z,86.87
2023-03-20T04:49:09.564Z,86.66
2023-03-20T04:50:09.561Z,86.81
2023-03-20T04:51:09.544Z,87.22
2023-03-20T04:52:09.538Z,86.60
2023-03-20T04:53:09.535Z,86.98
2023-03-20T04:54:09.539Z,86.91
2023-03-20T04:55:09.527Z,86.50
2023-03-20T04:56:09.487Z,86.91
2023-03-20T04:57:09.469Z,86.91
2023-03-20T04:58:09.475Z,86.60
2023-03-20T04:59:09.494Z,86.71
2023-03-20T05:00:09.431Z,86.81
2023-03-20T05:01:09.493Z,86.75
2023-03-20T05:02:09.424Z,86.91
2023-03-20T05:03:09.413Z,86.95
2023-03-20T05:04:09.471Z,86.95
2023-03-20T05:05:09.408Z,86.95
2023-03-20T05:06:09.366Z,87.05
2023-03-20T05:07:09.359Z,86.95
2023-03-20T05:08:09.340Z,86.95
2023-03-20T05:09:09.330Z,87.05
2023-03-20T05:10:09.350Z,86.95
2023-03-20T05:11:09.334Z,87.26
2023-03-20T05:12:09.312Z,86.95
2023-03-20T05:13:09.287Z,87.26
2023-03-20T05:14:09.281Z,87.51
2023-03-20T05:15:09.280Z,87.46
2023-03-20T05:16:09.290Z,87.57
2023-03-20T05:17:09.278Z,87.37
2023-03-20T05:18:09.225Z,87.98
2023-03-20T05:19:09.219Z,87.16
2023-03-20T05:20:09.203Z,87.51
2023-03-20T05:21:09.262Z,87.37
2023-03-20T05:22:09.197Z,87.10
2023-03-20T05:23:09.187Z,87.26
2023-03-20T05:24:09.165Z,87.40
2023-03-20T05:25:09.148Z,87.40
2023-03-20T05:26:09.173Z,87.82
2023-03-20T05:27:09.141Z,87.77
2023-03-20T05:28:09.134Z,87.30
2023-03-20T05:29:09.110Z,87.20
2023-03-20T05:30:09.101Z,87.05
2023-03-20T05:31:09.177Z,87.40
2023-03-20T05:32:09.098Z,87.40
2023-03-20T05:33:09.186Z,87.10
2023-03-20T05:34:09.060Z,87.30
2023-03-20T05:35:09.042Z,87.10
2023-03-20T05:36:09.087Z,87.10
2023-03-20T05:37:09.040Z,86.89
2023-03-20T05:38:09.003Z,87.30
2023-03-20T05:39:08.994Z,87.61
2023-03-20T05:40:08.978Z,87.51
2023-03-20T05:41:08.987Z,87.10
2023-03-20T05:42:09.014Z,87.65
2023-03-20T05:43:08.948Z,87.55
2023-03-20T05:44:08.944Z,87.51
2023-03-20T05:45:08.924Z,87.30
2023-03-20T05:46:08.966Z,87.40
2023-03-20T05:47:08.922Z,87.24
2023-03-20T05:48:08.894Z,87.40
2023-03-20T05:49:08.894Z,87.30
2023-03-20T05:50:08.874Z,87.71
2023-03-20T05:51:08.885Z,87.96
2023-03-20T05:52:08.857Z,87.40
2023-03-20T05:53:08.885Z,87.85
2023-03-20T05:54:08.831Z,87.71
2023-03-20T05:55:08.841Z,88.17
2023-03-20T05:56:08.811Z,87.85
2023-03-20T05:57:08.861Z,87.82
2023-03-20T05:58:08.816Z,88.17
2023-03-20T05:59:08.780Z,87.61
2023-03-20T06:00:08.770Z,87.65
2023-03-20T06:01:08.748Z,87.51
2023-03-20T06:02:08.846Z,87.30
2023-03-20T06:03:08.777Z,88.06
2023-03-20T06:04:08.715Z,87.55
2023-03-20T06:05:08.732Z,88.17
2023-03-20T06:06:08.705Z,87.65
2023-03-20T06:07:08.698Z,88.17
2023-03-20T06:08:08.695Z,87.92
2023-03-20T06:09:08.659Z,88.17
2023-03-20T06:10:08.641Z,88.37
2023-03-20T06:11:08.646Z,88.12
2023-03-20T06:12:08.621Z,87.75
2023-03-20T06:13:08.629Z,87.75
2023-03-20T06:14:08.654Z,87.65
2023-03-20T06:15:08.590Z,88.47
2023-03-20T06:16:08.929Z,88.02
2023-03-20T06:17:08.588Z,88.43
2023-03-20T06:18:08.569Z,87.45
2023-03-20T06:19:08.567Z,88.23
2023-03-20T06:20:08.551Z,87.51
2023-03-20T06:21:08.537Z,87.71
2023-03-20T06:22:08.525Z,87.51
2023-03-20T06:23:08.502Z,87.30
2023-03-20T06:24:08.556Z,88.12
2023-03-20T06:25:08.486Z,88.12
2023-03-20T06:26:08.468Z,88.23
2023-03-20T06:27:08.470Z,87.82
2023-03-20T06:28:08.465Z,89.15
2023-03-20T06:29:08.446Z,88.53
2023-03-20T06:30:08.517Z,89.15
2023-03-20T06:31:08.470Z,88.84
2023-03-20T06:32:08.408Z,88.90
2023-03-20T06:33:08.481Z,88.80
2023-03-20T06:34:08.398Z,88.59
2023-03-20T06:35:08.402Z,88.70
2023-03-20T06:36:08.364Z,88.80
2023-03-20T06:37:08.341Z,87.73
2023-03-20T06:38:08.333Z,87.53
2023-03-20T06:39:08.324Z,87.32
2023-03-20T06:40:08.390Z,87.73
2023-03-20T06:41:08.316Z,87.63
2023-03-20T06:42:08.282Z,86.91
2023-03-20T06:43:08.289Z,87.02
2023-03-20T06:44:08.281Z,86.98
2023-03-20T06:45:08.281Z,87.08
2023-03-20T06:46:08.392Z,87.18
2023-03-20T06:47:08.245Z,86.98
2023-03-20T06:48:08.236Z,86.66
2023-03-20T06:49:09.163Z,86.05
2023-03-20T06:50:08.195Z,86.46
2023-03-20T06:51:08.191Z,86.05
2023-03-20T06:52:08.200Z,86.15
2023-03-20T06:53:08.168Z,85.80
2023-03-20T06:54:08.164Z,86.11
2023-03-20T06:55:08.156Z,85.80
2023-03-20T06:56:08.135Z,84.99
2023-03-20T06:57:08.127Z,84.99
2023-03-20T06:58:08.140Z,85.80
2023-03-20T06:59:08.095Z,86.11
2023-03-20T07:00:08.081Z,85.33
2023-03-20T07:01:08.084Z,85.30
2023-03-20T07:02:08.206Z,84.78
2023-03-20T07:03:08.059Z,84.78
2023-03-20T07:04:08.060Z,84.88
2023-03-20T07:05:08.198Z,84.99
2023-03-20T07:06:08.015Z,84.58
2023-03-20T07:07:08.008Z,84.17
2023-03-20T07:08:08.000Z,84.17
2023-03-20T07:09:08.001Z,84.17
2023-03-20T07:10:08.048Z,84.06
2023-03-20T07:11:08.004Z,84.17
2023-03-20T07:12:07.964Z,84.06
2023-03-20T07:13:07.970Z,83.86
2023-03-20T07:14:07.934Z,83.86
2023-03-20T07:15:07.956Z,83.92
2023-03-20T07:16:08.064Z,84.27
2023-03-20T07:17:07.898Z,83.61
2023-03-20T07:18:07.904Z,84.03
2023-03-20T07:19:07.874Z,83.47
2023-03-20T07:20:07.857Z,83.31
2023-03-20T07:21:07.932Z,83.68
2023-03-20T07:22:07.899Z,83.47
2023-03-20T07:23:07.848Z,82.76
2023-03-20T07:24:07.829Z,82.65
2023-03-20T07:25:07.820Z,82.71
2023-03-20T07:26:07.790Z,82.82
2023-03-20T07:27:07.803Z,82.10
2023-03-20T07:28:07.780Z,81.70
2023-03-20T07:29:07.773Z,81.70
2023-03-20T07:30:07.760Z,81.70
2023-03-20T07:31:07.814Z,81.70
2023-03-20T07:32:07.754Z,81.38
2023-03-20T07:33:07.842Z,81.45
2023-03-20T07:34:07.742Z,81.65
2023-03-20T07:35:07.709Z,81.35
2023-03-20T07:36:07.765Z,80.77
2023-03-20T07:37:07.702Z,80.33
2023-03-20T07:38:07.658Z,80.67
2023-03-20T07:39:07.674Z,80.74
2023-03-20T07:40:07.630Z,80.83
2023-03-20T07:41:07.644Z,80.22
2023-03-20T07:42:07.641Z,80.12
2023-03-20T07:43:07.621Z,79.61
2023-03-20T07:44:07.603Z,79.41
2023-03-20T07:45:07.590Z,79.20
2023-03-20T07:46:07.662Z,79.82
2023-03-20T07:47:07.549Z,79.75
2023-03-20T07:48:07.613Z,79.82
2023-03-20T07:49:07.529Z,79.85
2023-03-20T07:50:08.390Z,79.30
2023-03-20T07:51:07.547Z,79.64
2023-03-20T07:52:07.511Z,79.24
2023-03-20T07:53:07.503Z,79.75
2023-03-20T07:54:07.487Z,79.34
2023-03-20T07:55:07.489Z,79.24
2023-03-20T07:56:07.461Z,79.85
2023-03-20T07:57:07.445Z,80.05
2023-03-20T07:58:07.451Z,79.85
2023-03-20T07:59:07.511Z,79.44
2023-03-20T08:00:07.424Z,79.13
2023-03-20T08:01:07.387Z,79.54
2023-03-20T08:02:07.385Z,79.10
2023-03-20T08:03:07.476Z,78.42
2023-03-20T08:04:07.513Z,78.66
2023-03-20T08:05:07.357Z,79.24
2023-03-20T08:06:07.389Z,79.34
2023-03-20T08:07:07.331Z,77.84
2023-03-20T08:08:07.359Z,78.66
2023-03-20T08:09:07.320Z,78.45
2023-03-20T08:10:07.293Z,79.38
2023-03-20T08:11:07.299Z,79.48
2023-03-20T08:12:07.284Z,78.97
2023-03-20T08:13:07.297Z,79.13
2023-03-20T08:14:07.275Z,78.42
2023-03-20T08:15:07.249Z,78.52
2023-03-20T08:16:07.331Z,78.38
2023-03-20T08:17:14.868Z,78.63
2023-03-20T08:18:08.207Z,78.11
2023-03-20T08:19:07.254Z,77.97
2023-03-20T08:20:07.185Z,78.01
2023-03-20T08:21:07.168Z,77.67
2023-03-20T08:22:07.232Z,77.19
2023-03-20T08:23:07.159Z,77.36
2023-03-20T08:24:07.159Z,77.22
2023-03-20T08:25:07.182Z,77.15
2023-03-20T08:26:07.130Z,77.67
2023-03-20T08:27:07.178Z,76.40
2023-03-20T08:28:07.105Z,77.12
2023-03-20T08:29:07.076Z,76.91
2023-03-20T08:30:07.084Z,76.30
2023-03-20T08:31:07.121Z,76.40
2023-03-20T08:32:07.063Z,75.75
2023-03-20T08:33:07.049Z,75.79
2023-03-20T08:34:07.049Z,75.79
2023-03-20T08:35:07.010Z,75.89
2023-03-20T08:36:07.050Z,75.55
2023-03-20T08:37:07.003Z,75.55
2023-03-20T08:38:07.024Z,75.79
2023-03-20T08:39:06.995Z,74.35
2023-03-20T08:40:07.197Z,73.61
2023-03-20T08:41:06.964Z,73.74
2023-03-20T08:42:06.952Z,73.64
2023-03-20T08:43:06.921Z,74.32
2023-03-20T08:44:06.927Z,74.66
2023-03-20T08:45:06.915Z,74.22
2023-03-20T08:46:07.001Z,74.43
2023-03-20T08:47:06.919Z,74.05
2023-03-20T08:48:06.866Z,74.52
2023-03-20T08:49:06.852Z,73.81
2023-03-20T08:50:06.862Z,74.02
2023-03-20T08:51:06.896Z,73.06
2023-03-20T08:52:06.834Z,73.16
2023-03-20T08:53:06.834Z,73.40
2023-03-20T08:54:06.837Z,73.06
2023-03-20T08:55:06.798Z,72.96
2023-03-20T08:56:06.820Z,72.75
2023-03-20T08:57:06.781Z,72.28
2023-03-20T08:58:06.763Z,71.94
2023-03-20T08:59:06.765Z,72.04
2023-03-20T09:00:06.728Z,71.73
2023-03-20T09:01:06.767Z,71.94
2023-03-20T09:02:06.851Z,72.14
2023-03-20T09:03:06.728Z,72.21
2023-03-20T09:04:06.706Z,72.21
2023-03-20T09:05:06.691Z,71.80
2023-03-20T09:06:06.673Z,71.59
2023-03-20T09:07:06.676Z,71.59
2023-03-20T09:08:06.660Z,71.29
2023-03-20T09:09:06.624Z,71.09
2023-03-20T09:10:06.731Z,71.09
2023-03-20T09:11:06.599Z,71.80
2023-03-20T09:12:06.604Z,71.77
2023-03-20T09:13:25.341Z,71.26
2023-03-20T09:14:07.616Z,71.15
2023-03-20T09:15:06.566Z,71.15
2023-03-20T09:16:06.629Z,71.15
2023-03-20T09:17:06.544Z,71.46
2023-03-20T09:18:06.543Z,71.26
2023-03-20T09:19:06.514Z,70.54
2023-03-20T09:20:06.521Z,70.85
2023-03-20T09:21:06.499Z,70.64
2023-03-20T09:22:06.525Z,70.34
2023-03-20T09:23:06.469Z,70.14
2023-03-20T09:24:06.506Z,70.27
2023-03-20T09:25:06.467Z,69.56
2023-03-20T09:26:06.489Z,70.57
2023-03-20T09:27:06.465Z,71.29
2023-03-20T09:28:06.431Z,71.91
2023-03-20T09:29:06.422Z,72.31
2023-03-20T09:30:06.417Z,71.15
2023-03-20T09:31:06.407Z,71.29
2023-03-20T09:32:06.387Z,71.67
2023-03-20T09:33:06.402Z,70.85
2023-03-20T09:34:06.375Z,70.23
2023-03-20T09:35:06.347Z,70.34
2023-03-20T09:36:06.364Z,70.44
2023-03-20T09:37:06.313Z,70.81
2023-03-20T09:38:06.320Z,70.10
2023-03-20T09:39:06.316Z,70.31
2023-03-20T09:40:06.319Z,69.35
2023-03-20T09:41:06.268Z,69.05
2023-03-20T09:42:06.293Z,69.56
2023-03-20T09:43:06.240Z,69.15
2023-03-20T09:44:06.254Z,69.12
2023-03-20T09:45:06.238Z,68.91
2023-03-20T09:46:06.324Z,68.61
2023-03-20T09:47:19.379Z,67.99
2023-03-20T09:48:07.192Z,67.18
2023-03-20T09:49:06.193Z,68.71
2023-03-20T09:50:06.178Z,68.81
2023-03-20T09:51:06.205Z,67.38
2023-03-20T09:52:06.150Z,67.82
2023-03-20T09:53:06.145Z,67.59
2023-03-20T09:54:06.143Z,67.72
2023-03-20T09:55:06.140Z,67.72
2023-03-20T09:56:06.141Z,67.41
2023-03-20T09:57:06.095Z,67.32
2023-03-20T09:58:06.103Z,68.54
2023-03-20T09:59:06.085Z,68.64
2023-03-20T10:00:06.066Z,67.72
2023-03-20T10:01:06.063Z,68.13
2023-03-20T10:02:06.146Z,68.64
2023-03-20T10:03:06.021Z,68.13
2023-03-20T10:04:06.081Z,68.98
2023-03-20T10:05:05.998Z,68.98
2023-03-20T10:06:06.011Z,68.88
2023-03-20T10:07:05.993Z,69.59
2023-03-20T10:08:05.983Z,70.27
2023-03-20T10:09:05.967Z,69.46
2023-03-20T10:10:05.964Z,69.76
2023-03-20T10:11:05.927Z,69.35
2023-03-20T10:12:05.924Z,69.15
2023-03-20T10:13:05.943Z,68.64
2023-03-20T10:14:05.917Z,68.95
2023-03-20T10:15:05.917Z,68.64
2023-03-20T10:16:05.957Z,68.33
2023-03-20T10:17:05.860Z,68.74
2023-03-20T10:18:05.867Z,68.71
2023-03-20T10:19:05.837Z,68.81
2023-03-20T10:20:05.829Z,68.81
2023-03-20T10:21:05.869Z,68.81
2023-03-20T10:22:05.806Z,68.78
2023-03-20T10:23:05.792Z,69.29
2023-03-20T10:24:05.806Z,67.55
2023-03-20T10:25:05.787Z,66.85
2023-03-20T10:26:05.810Z,66.85
2023-03-20T10:27:05.774Z,66.64
2023-03-20T10:28:05.742Z,67.66
2023-03-20T10:29:05.728Z,66.85
2023-03-20T10:30:05.751Z,67.25
2023-03-20T10:31:05.858Z,67.25
2023-03-20T10:32:05.729Z,66.44
2023-03-20T10:33:05.759Z,66.44
2023-03-20T10:34:05.687Z,66.33
2023-03-20T10:35:05.657Z,66.54
2023-03-20T10:36:05.703Z,66.13
2023-03-20T10:37:05.673Z,66.74
2023-03-20T10:38:05.644Z,66.85
2023-03-20T10:39:05.631Z,66.33
2023-03-20T10:40:05.605Z,66.74
2023-03-20T10:41:05.616Z,65.31
2023-03-20T10:42:05.617Z,65.52
2023-03-20T10:43:05.591Z,65.34
2023-03-20T10:44:05.564Z,65.86
2023-03-20T10:45:05.549Z,65.75
2023-03-20T10:46:05.575Z,64.32
2023-03-20T10:47:05.594Z,64.32
2023-03-20T10:48:05.616Z,64.02
2023-03-20T10:49:05.514Z,63.51
2023-03-20T10:50:05.508Z,63.75
2023-03-20T10:51:05.489Z,64.12
2023-03-20T10:52:05.552Z,63.03
2023-03-20T10:53:05.466Z,63.00
2023-03-20T10:54:05.463Z,62.11
2023-03-20T10:55:05.484Z,62.93
2023-03-20T10:56:05.469Z,63.13
2023-03-20T10:57:05.451Z,63.23
2023-03-20T10:58:05.420Z,63.26
2023-03-20T10:59:05.393Z,62.73
2023-03-20T11:00:05.403Z,62.85
2023-03-20T11:01:05.401Z,63.26
2023-03-20T11:02:05.442Z,62.68
2023-03-20T11:03:05.356Z,62.96
2023-03-20T11:04:05.362Z,62.76
2023-03-20T11:05:05.353Z,63.16
2023-03-20T11:06:09.963Z,62.14
2023-03-20T11:07:05.334Z,62.24
2023-03-20T11:08:05.305Z,62.45
2023-03-20T11:09:05.292Z,61.71
2023-03-20T11:10:05.299Z,61.80
2023-03-20T11:11:05.274Z,61.80
2023-03-20T11:12:05.334Z,61.94
2023-03-20T11:13:05.256Z,61.94
2023-03-20T11:14:05.242Z,62.62
2023-03-20T11:15:05.234Z,62.73
2023-03-20T11:16:05.427Z,62.73
2023-03-20T11:17:05.227Z,62.32
2023-03-20T11:18:05.205Z,62.35
2023-03-20T11:19:06.038Z,62.21
2023-03-20T11:20:05.191Z,63.03
2023-03-20T11:21:05.158Z,63.23
2023-03-20T11:22:05.159Z,62.52
2023-03-20T11:23:05.178Z,62.04
2023-03-20T11:24:05.121Z,61.87
2023-03-20T11:25:05.116Z,62.88
2023-03-20T11:26:05.115Z,63.90
2023-03-20T11:27:05.092Z,63.60
2023-03-20T11:28:05.100Z,64.72
2023-03-20T11:29:05.082Z,64.62
2023-03-20T11:30:05.097Z,64.83
2023-03-20T11:31:05.641Z,64.22
2023-03-20T11:32:05.073Z,64.39
2023-03-20T11:33:05.046Z,64.18
2023-03-20T11:34:05.083Z,63.70
2023-03-20T11:35:05.015Z,63.81
2023-03-20T11:36:05.017Z,64.42
2023-03-20T11:37:10.499Z,64.11
2023-03-20T11:38:05.977Z,64.90
2023-03-20T11:39:04.959Z,64.90
2023-03-20T11:40:04.975Z,64.90
2023-03-20T11:41:04.919Z,64.90
2023-03-20T11:42:04.927Z,64.39
2023-03-20T11:43:04.894Z,64.28
2023-03-20T11:44:04.922Z,63.67
2023-03-20T11:45:04.900Z,64.39
2023-03-20T11:46:04.960Z,64.11
2023-03-20T11:47:04.856Z,64.90
2023-03-20T11:48:04.849Z,64.39
2023-03-20T11:49:04.827Z,63.87
2023-03-20T11:50:04.840Z,63.78
2023-03-20T11:51:04.827Z,63.37
2023-03-20T11:52:04.846Z,64.11
2023-03-20T11:53:04.801Z,65.00
2023-03-20T11:54:04.792Z,65.00
2023-03-20T11:55:04.789Z,64.11
2023-03-20T11:56:04.771Z,63.29
2023-03-20T11:57:04.753Z,64.01
2023-03-20T11:58:04.763Z,64.11
2023-03-20T11:59:04.746Z,64.08
2023-03-20T12:00:04.725Z,64.22
2023-03-20T12:01:04.699Z,64.49
2023-03-20T12:02:04.784Z,64.93
2023-03-20T12:03:04.677Z,65.10
2023-03-20T12:04:04.683Z,64.28
2023-03-20T12:05:04.678Z,64.72
2023-03-20T12:06:04.662Z,64.49
2023-03-20T12:07:04.633Z,64.08
2023-03-20T12:08:04.640Z,63.87
2023-03-20T12:09:04.625Z,63.90
2023-03-20T12:10:04.634Z,64.22
2023-03-20T12:11:04.590Z,64.08
2023-03-20T12:12:04.586Z,64.39
2023-03-20T12:13:04.590Z,64.79
2023-03-20T12:14:04.583Z,63.98
2023-03-20T12:15:04.594Z,63.87
2023-03-20T12:16:04.632Z,64.18
2023-03-20T12:17:04.522Z,64.18
2023-03-20T12:18:04.528Z,63.78
2023-03-20T12:19:04.521Z,62.82
2023-03-20T12:20:04.488Z,62.93
2023-03-20T12:21:04.494Z,62.45
2023-03-20T12:22:04.501Z,62.82
2023-03-20T12:23:04.454Z,62.24
2023-03-20T12:24:04.457Z,63.16
2023-03-20T12:25:04.458Z,63.78
2023-03-20T12:26:04.475Z,62.76
2023-03-20T12:27:04.417Z,63.60
2023-03-20T12:28:04.407Z,64.52
2023-03-20T12:29:04.397Z,64.72
2023-03-20T12:30:04.394Z,64.72
2023-03-20T12:31:04.459Z,64.69
2023-03-20T12:32:04.370Z,63.78
2023-03-20T12:33:04.450Z,64.22
2023-03-20T12:34:04.336Z,64.42
2023-03-20T12:35:04.322Z,64.52
2023-03-20T12:36:04.361Z,64.31
2023-03-20T12:37:04.359Z,64.79
2023-03-20T12:38:04.313Z,63.16
2023-03-20T12:39:04.291Z,63.90
2023-03-20T12:40:04.284Z,64.90
2023-03-20T12:41:04.277Z,64.59
2023-03-20T12:42:04.780Z,64.69
2023-03-20T12:43:04.251Z,65.00
2023-03-20T12:44:04.228Z,64.69
2023-03-20T12:45:04.222Z,65.10
2023-03-20T12:46:04.247Z,64.90
2023-03-20T12:47:04.201Z,65.28
2023-03-20T12:48:04.185Z,65.00
2023-03-20T12:49:04.189Z,66.12
2023-03-20T12:50:04.155Z,64.79
2023-03-20T12:51:04.160Z,65.10
2023-03-20T12:52:04.142Z,65.61